createdAt,value
2023-01-11T00:00:18.235Z,1.50
2023-01-11T00:03:19.469Z,1.35
2023-01-11T00:06:20.819Z,1.35
2023-01-11T00:09:22.108Z,0.97
2023-01-11T00:12:23.359Z,1.45
2023-01-11T00:15:24.625Z,1.58
2023-01-11T00:18:25.883Z,1.08
2023-01-11T00:21:27.146Z,1.02
2023-01-11T00:24:28.400Z,1.40
2023-01-11T00:27:29.636Z,0.90
2023-01-11T00:30:30.868Z,1.50
2023-01-11T00:33:32.135Z,1.00
2023-01-11T00:36:33.377Z,0.93
2023-01-11T00:39:34.623Z,1.10
2023-01-11T00:42:35.854Z,1.55
2023-01-11T00:45:37.188Z,1.10
2023-01-11T00:48:38.450Z,1.15
2023-01-11T00:51:39.758Z,1.10
2023-01-11T00:54:41.100Z,1.30
2023-01-11T00:57:42.513Z,1.10
2023-01-11T01:00:43.868Z,1.45
2023-01-11T01:03:45.251Z,0.73
2023-01-11T01:06:46.522Z,1.00
2023-01-11T01:09:47.825Z,1.00
2023-01-11T01:12:49.074Z,1.27
2023-01-11T01:15:50.339Z,1.27
2023-01-11T01:18:51.583Z,1.10
2023-01-11T01:21:52.841Z,1.20
2023-01-11T01:24:54.107Z,1.00
2023-01-11T01:27:55.364Z,1.00
2023-01-11T01:30:56.634Z,1.10
2023-01-11T01:33:57.901Z,1.02
2023-01-11T01:36:59.159Z,0.98
2023-01-11T01:40:00.390Z,1.10
2023-01-11T01:43:01.638Z,0.98
2023-01-11T01:46:02.918Z,0.98
2023-01-11T01:49:04.174Z,1.30
2023-01-11T01:52:05.639Z,1.30
2023-01-11T01:55:06.882Z,1.10
2023-01-11T01:58:08.125Z,0.98
2023-01-11T02:01:09.414Z,1.30
2023-01-11T02:04:10.647Z,1.20
2023-01-11T02:07:11.907Z,1.08
2023-01-11T02:10:13.165Z,1.30
2023-01-11T02:13:14.433Z,1.08
2023-01-11T02:16:15.765Z,0.98
2023-01-11T02:19:17.049Z,1.17
2023-01-11T02:22:18.285Z,0.93
2023-01-11T02:25:19.553Z,1.23
2023-01-11T02:28:20.914Z,1.20
2023-01-11T02:31:22.225Z,1.27
2023-01-11T02:34:23.504Z,1.20
2023-01-11T02:37:24.749Z,1.50
2023-01-11T02:40:25.987Z,0.77
2023-01-11T02:43:27.252Z,1.30
2023-01-11T02:46:28.547Z,1.27
2023-01-11T02:49:29.861Z,0.77
2023-01-11T02:52:31.137Z,1.08
2023-01-11T02:55:32.381Z,0.77
2023-01-11T02:58:33.617Z,0.82
2023-01-11T03:01:34.887Z,0.98
2023-01-11T03:04:36.176Z,0.65
2023-01-11T03:07:37.446Z,1.30
2023-01-11T03:10:38.711Z,0.90
2023-01-11T03:13:40.129Z,1.35
2023-01-11T03:16:41.364Z,1.13
2023-01-11T03:19:42.617Z,1.10
2023-01-11T03:22:43.868Z,1.10
2023-01-11T03:25:45.112Z,0.70
2023-01-11T03:28:46.362Z,1.13
2023-01-11T03:31:47.617Z,0.82
2023-01-11T03:34:48.882Z,0.82
2023-01-11T03:37:50.130Z,0.80
2023-01-11T03:40:51.391Z,1.07
2023-01-11T03:43:52.635Z,0.90
2023-01-11T03:46:53.908Z,1.40
2023-01-11T03:49:55.165Z,1.08
2023-01-11T03:52:56.561Z,0.82
2023-01-11T03:55:57.810Z,1.23
2023-01-11T03:58:59.058Z,1.20
2023-01-11T04:02:00.304Z,0.98
2023-01-11T04:05:01.538Z,0.98
2023-01-11T04:08:02.789Z,1.10
2023-01-11T04:11:04.034Z,1.00
2023-01-11T04:14:05.269Z,1.20
2023-01-11T04:17:06.521Z,1.25
2023-01-11T04:20:07.769Z,1.33
2023-01-11T04:23:09.022Z,1.42
2023-01-11T04:26:10.271Z,0.77
2023-01-11T04:29:11.530Z,1.17
2023-01-11T04:32:12.775Z,1.05
2023-01-11T04:35:14.050Z,0.75
2023-01-11T04:38:15.306Z,0.98
2023-01-11T04:41:16.712Z,1.10
2023-01-11T04:44:18.084Z,1.35
2023-01-11T04:47:19.335Z,0.95
2023-01-11T04:50:20.591Z,1.42
2023-01-11T04:53:21.852Z,1.20
2023-01-11T04:56:23.087Z,0.83
2023-01-11T04:59:24.354Z,0.65
2023-01-11T05:02:25.627Z,1.00
2023-01-11T05:05:26.880Z,1.00
2023-01-11T05:08:28.162Z,1.30
2023-01-11T05:11:29.467Z,1.00
2023-01-11T05:14:30.773Z,1.85
2023-01-11T05:17:32.091Z,0.93
2023-01-11T05:20:33.384Z,1.33
2023-01-11T05:23:34.705Z,1.27
2023-01-11T05:26:36.013Z,1.07
2023-01-11T05:29:37.330Z,1.40
2023-01-11T05:32:38.641Z,1.55
2023-01-11T05:35:39.937Z,1.05
2023-01-11T05:38:41.245Z,1.00
2023-01-11T05:41:42.556Z,1.20
2023-01-11T05:44:43.862Z,1.10
2023-01-11T05:47:45.151Z,1.38
2023-01-11T05:50:46.449Z,0.93
2023-01-11T05:53:47.756Z,1.02
2023-01-11T05:56:49.066Z,1.00
2023-01-11T05:59:50.352Z,1.10
2023-01-11T06:02:51.854Z,1.30
2023-01-11T06:05:53.262Z,1.13
2023-01-11T06:08:54.573Z,1.23
2023-01-11T06:11:55.890Z,1.30
2023-01-11T06:14:57.213Z,1.30
2023-01-11T06:17:58.535Z,1.13
2023-01-11T06:20:59.843Z,1.15
2023-01-11T06:24:01.147Z,1.33
2023-01-11T06:27:02.471Z,1.30
2023-01-11T06:30:03.762Z,1.25
2023-01-11T06:33:05.107Z,1.30
2023-01-11T06:36:06.435Z,1.17
2023-01-11T06:39:07.788Z,1.13
2023-01-11T06:42:09.119Z,1.10
2023-01-11T06:45:10.451Z,1.50
2023-01-11T06:48:11.759Z,2.22
2023-01-11T06:51:13.062Z,3.05
2023-01-11T06:54:14.388Z,3.53
2023-01-11T06:57:15.754Z,2.03
2023-01-11T07:00:17.109Z,1.95
2023-01-11T07:03:18.451Z,1.73
2023-01-11T07:06:19.944Z,1.70
2023-01-11T07:09:21.271Z,1.30
2023-01-11T07:12:22.627Z,1.53
2023-01-11T07:15:23.920Z,1.63
2023-01-11T07:18:25.347Z,1.30
2023-01-11T07:21:26.652Z,1.60
2023-01-11T07:24:27.963Z,2.80
2023-01-11T07:27:29.264Z,1.53
2023-01-11T07:30:30.755Z,1.65
2023-01-11T07:33:32.126Z,1.92
2023-01-11T07:36:33.568Z,1.90
2023-01-11T07:39:43.213Z,1.60
2023-01-11T07:42:45.026Z,2.70
2023-01-11T07:45:47.070Z,1.85
2023-01-11T07:48:48.563Z,2.13
2023-01-11T07:51:49.867Z,2.13
2023-01-11T07:54:51.155Z,1.95
2023-01-11T07:57:52.459Z,2.00
2023-01-11T08:00:53.782Z,2.45
2023-01-11T08:03:55.176Z,2.45
2023-01-11T08:06:56.524Z,2.78
2023-01-11T08:09:57.843Z,1.67
2023-01-11T08:12:59.158Z,2.53
2023-01-11T08:16:00.586Z,3.17
2023-01-11T08:19:01.957Z,2.72
2023-01-11T08:22:03.296Z,2.22
2023-01-11T08:25:04.629Z,2.15
2023-01-11T08:28:05.960Z,2.00
2023-01-11T08:31:07.275Z,2.00
2023-01-11T08:34:08.694Z,2.65
2023-01-11T08:37:10.013Z,2.47
2023-01-11T08:40:11.333Z,1.73
2023-01-11T08:43:12.660Z,1.87
2023-01-11T08:46:14.041Z,3.17
2023-01-11T08:49:15.403Z,2.47
2023-01-11T08:52:16.711Z,2.00
2023-01-11T08:55:18.020Z,2.58
2023-01-11T08:58:20.740Z,1.93
2023-01-11T09:01:22.998Z,3.60
2023-01-11T09:04:25.656Z,4.50
2023-01-11T09:07:27.334Z,3.97
2023-01-11T09:10:28.793Z,3.47
2023-01-11T09:13:30.231Z,3.40
2023-01-11T09:16:31.579Z,4.32
2023-01-11T09:19:32.889Z,2.95
2023-01-11T09:22:34.302Z,3.30
2023-01-11T09:25:35.625Z,4.30
2023-01-11T09:28:36.929Z,3.10
2023-01-11T09:31:38.343Z,2.78
2023-01-11T09:34:39.697Z,3.40
2023-01-11T09:37:41.080Z,2.85
2023-01-11T09:40:42.411Z,3.53
2023-01-11T09:43:43.745Z,2.60
2023-01-11T09:46:46.824Z,1.95
2023-01-11T09:49:48.228Z,6.22
2023-01-11T09:52:49.542Z,2.92
2023-01-11T09:55:50.833Z,3.25
2023-01-11T09:58:52.259Z,3.30
2023-01-11T10:01:53.564Z,3.10
2023-01-11T10:04:54.966Z,3.35
2023-01-11T10:18:31.913Z,2.55
2023-01-11T10:18:33.758Z,2.67
2023-01-11T10:21:21.547Z,2.53
2023-01-11T10:24:22.841Z,2.70
2023-01-11T10:27:24.181Z,3.08
2023-01-11T10:30:25.497Z,2.00
2023-01-11T10:33:26.826Z,1.92
2023-01-11T10:36:29.418Z,2.50
2023-01-11T10:39:37.159Z,6.68
2023-01-11T10:42:38.471Z,5.05
2023-01-11T10:45:39.860Z,5.93
2023-01-11T10:48:41.279Z,5.57
2023-01-11T10:51:42.593Z,3.90
2023-01-11T10:54:46.244Z,3.80
2023-01-11T10:58:00.189Z,3.40
2023-01-11T11:01:04.886Z,2.88
2023-01-11T11:04:06.528Z,2.70
2023-01-11T11:07:07.924Z,4.33
2023-01-11T11:10:09.328Z,2.83
2023-01-11T11:13:10.637Z,3.28
2023-01-11T11:16:12.011Z,3.20
2023-01-11T11:19:13.395Z,2.80
2023-01-11T11:22:14.694Z,2.40
2023-01-11T11:25:16.009Z,3.10
2023-01-11T11:28:17.302Z,3.63
2023-01-11T11:31:18.626Z,3.20
2023-01-11T11:34:20.057Z,2.55
2023-01-11T11:37:21.340Z,2.67
2023-01-11T11:40:22.701Z,2.45
2023-01-11T11:43:24.071Z,2.45
2023-01-11T11:46:25.433Z,2.95
2023-01-11T11:49:26.737Z,3.80
2023-01-11T11:52:28.054Z,4.57
2023-01-11T11:55:29.357Z,5.13
2023-01-11T11:58:30.692Z,5.20
2023-01-11T12:01:32.022Z,3.30
2023-01-11T12:04:33.303Z,4.57
2023-01-11T12:07:40.404Z,4.17
2023-01-11T12:10:47.566Z,3.70
2023-01-11T12:13:48.883Z,4.60
2023-01-11T12:16:50.250Z,3.75
2023-01-11T12:19:51.608Z,8.75
2023-01-11T12:22:52.929Z,5.77
2023-01-11T12:25:54.240Z,4.50
2023-01-11T12:28:55.594Z,5.07
2023-01-11T12:31:56.901Z,5.40
2023-01-11T12:34:58.318Z,4.00
2023-01-11T12:37:59.619Z,4.87
2023-01-11T12:41:00.968Z,5.53
2023-01-11T12:44:02.261Z,3.70
2023-01-11T12:47:03.570Z,4.60
2023-01-11T12:50:04.865Z,4.32
2023-01-11T12:53:06.202Z,3.33
2023-01-11T12:56:07.585Z,3.60
2023-01-11T12:59:08.930Z,3.58
2023-01-11T13:02:10.272Z,2.92
2023-01-11T13:05:11.620Z,2.85
2023-01-11T13:08:12.988Z,3.10
2023-01-11T13:11:14.326Z,3.28
2023-01-11T13:14:15.610Z,3.50
2023-01-11T13:17:16.979Z,2.78
2023-01-11T13:20:18.324Z,3.25
2023-01-11T13:23:19.641Z,2.83
2023-01-11T13:26:20.934Z,3.42
2023-01-11T13:29:22.263Z,3.15
2023-01-11T13:32:23.577Z,2.65
2023-01-11T13:35:24.877Z,2.85
2023-01-11T13:38:26.283Z,2.90
2023-01-11T13:41:27.640Z,2.55
2023-01-11T13:44:28.982Z,2.90
2023-01-11T13:47:30.403Z,3.95
2023-01-11T13:50:31.747Z,3.65
2023-01-11T13:53:33.080Z,2.53
2023-01-11T13:56:34.404Z,2.33
2023-01-11T13:59:35.734Z,2.63
2023-01-11T14:02:38.443Z,2.17
2023-01-11T14:05:40.169Z,2.45
2023-01-11T14:08:41.482Z,3.07
2023-01-11T14:11:43.048Z,2.90
2023-01-11T14:14:44.416Z,2.97
2023-01-11T14:17:45.711Z,5.20
2023-01-11T14:20:47.008Z,3.30
2023-01-11T14:23:48.440Z,3.70
2023-01-11T14:26:49.812Z,3.58
2023-01-11T14:29:51.201Z,3.45
2023-01-11T14:32:52.515Z,3.28
2023-01-11T14:35:53.831Z,2.97
2023-01-11T14:38:55.163Z,3.40
2023-01-11T14:41:56.581Z,4.22
2023-01-11T14:44:57.882Z,2.88
2023-01-11T14:47:59.240Z,2.97
2023-01-11T14:51:00.667Z,4.28
2023-01-11T14:54:02.004Z,3.13
2023-01-11T14:57:03.308Z,3.47
2023-01-11T15:00:04.606Z,3.15
2023-01-11T15:03:05.925Z,2.85
2023-01-11T15:06:07.229Z,4.18
2023-01-11T15:09:08.542Z,4.27
2023-01-11T15:12:09.920Z,5.25
2023-01-11T15:15:11.241Z,5.18
2023-01-11T15:18:12.638Z,6.40
2023-01-11T15:21:13.980Z,5.53
2023-01-11T15:24:15.279Z,6.57
2023-01-11T15:27:16.647Z,4.78
2023-01-11T15:30:17.987Z,5.43
2023-01-11T15:33:19.370Z,4.53
2023-01-11T15:36:20.718Z,4.63
2023-01-11T15:39:22.016Z,4.37
2023-01-11T15:42:23.378Z,4.70
2023-01-11T15:45:24.659Z,4.70
2023-01-11T15:48:25.977Z,4.40
2023-01-11T15:51:27.470Z,6.28
2023-01-11T15:54:28.808Z,14.00
2023-01-11T15:57:30.117Z,9.07
2023-01-11T16:00:31.531Z,5.88
2023-01-11T16:03:32.839Z,5.18
2023-01-11T16:06:34.158Z,6.10
2023-01-11T16:09:35.443Z,6.60
2023-01-11T16:12:36.764Z,6.47
2023-01-11T16:15:38.075Z,6.47
2023-01-11T16:18:39.380Z,5.90
2023-01-11T16:21:40.679Z,6.57
2023-01-11T16:24:42.021Z,7.20
2023-01-11T16:27:43.353Z,7.40
2023-01-11T16:30:44.644Z,7.55
2023-01-11T16:33:47.574Z,7.45
2023-01-11T16:36:50.754Z,8.02
2023-01-11T16:39:52.168Z,7.93
2023-01-11T16:42:53.478Z,11.35
2023-01-11T16:45:54.861Z,8.40
2023-01-11T16:48:56.277Z,13.27
2023-01-11T16:51:57.598Z,15.85
2023-01-11T16:54:58.914Z,13.97
2023-01-11T16:58:00.209Z,13.98
2023-01-11T17:01:01.593Z,12.80
2023-01-11T17:04:04.974Z,12.60
2023-01-11T17:07:08.501Z,13.18
2023-01-11T17:10:09.789Z,12.77
2023-01-11T17:13:11.121Z,12.75
2023-01-11T17:16:12.582Z,15.05
2023-01-11T17:19:13.966Z,13.68
2023-01-11T17:22:15.246Z,12.68
2023-01-11T17:25:16.708Z,14.07
2023-01-11T17:28:18.020Z,14.00
2023-01-11T17:31:19.369Z,14.38
2023-01-11T17:34:20.696Z,12.48
2023-01-11T17:37:21.999Z,12.90
2023-01-11T17:40:23.284Z,15.03
2023-01-11T17:43:24.588Z,14.55
2023-01-11T17:46:25.902Z,13.82
2023-01-11T17:49:27.242Z,14.25
2023-01-11T17:52:28.546Z,15.52
2023-01-11T17:55:29.856Z,15.43
2023-01-11T17:58:31.187Z,16.40
2023-01-11T18:01:32.545Z,15.32
2023-01-11T18:04:33.875Z,15.77
2023-01-11T18:07:35.190Z,15.73
2023-01-11T18:10:36.504Z,16.17
2023-01-11T18:13:37.815Z,16.17
2023-01-11T18:16:39.166Z,16.65
2023-01-11T18:19:40.574Z,17.17
2023-01-11T18:22:41.963Z,17.55
2023-01-11T18:25:43.270Z,18.07
2023-01-11T18:28:44.670Z,17.17
2023-01-11T18:31:46.022Z,15.63
2023-01-11T18:34:47.344Z,16.80
2023-01-11T18:37:48.665Z,18.58
2023-01-11T18:40:50.081Z,16.73
2023-01-11T18:43:51.419Z,16.50
2023-01-11T18:46:53.210Z,17.13
2023-01-11T18:49:54.640Z,17.25
2023-01-11T18:52:55.969Z,16.05
2023-01-11T18:55:57.597Z,16.27
2023-01-11T18:58:58.950Z,16.25
2023-01-11T19:02:15.756Z,17.33
2023-01-11T19:05:18.131Z,16.65
2023-01-11T19:08:19.528Z,16.17
2023-01-11T19:11:20.863Z,16.37
2023-01-11T19:14:22.219Z,16.08
2023-01-11T19:17:23.582Z,15.23
2023-01-11T19:20:25.303Z,14.90
2023-01-11T19:23:27.449Z,15.50
2023-01-11T19:26:29.280Z,15.13
2023-01-11T19:29:31.091Z,15.88
2023-01-11T19:32:32.861Z,14.13
2023-01-11T19:35:34.663Z,14.38
2023-01-11T19:38:36.361Z,14.90
2023-01-11T19:41:37.811Z,14.63
2023-01-11T19:44:39.166Z,14.48
2023-01-11T19:47:40.494Z,14.82
2023-01-11T19:50:42.188Z,14.77
2023-01-11T19:53:43.589Z,14.98
2023-01-11T19:56:44.909Z,14.43
2023-01-11T19:59:46.276Z,13.75
2023-01-11T20:02:47.803Z,14.35
2023-01-11T20:05:49.758Z,14.90
2023-01-11T20:08:51.506Z,14.45
2023-01-11T20:11:52.891Z,14.30
2023-01-11T20:14:55.771Z,14.27
2023-01-11T20:17:58.208Z,13.60
2023-01-11T20:20:59.551Z,13.45
2023-01-11T20:24:01.263Z,14.52
2023-01-11T20:27:03.111Z,14.03
2023-01-11T20:30:04.626Z,13.63
2023-01-11T20:33:06.356Z,13.77
2023-01-11T20:36:08.026Z,14.02
2023-01-11T20:39:13.043Z,13.82
2023-01-11T20:42:14.470Z,13.07
2023-01-11T20:45:15.802Z,14.20
2023-01-11T20:48:17.438Z,14.65
2023-01-11T20:51:18.817Z,13.48
2023-01-11T20:54:20.139Z,13.18
2023-01-11T20:57:21.453Z,13.13
2023-01-11T21:00:22.780Z,13.57
2023-01-11T21:03:24.106Z,13.35
2023-01-11T21:06:25.422Z,13.50
2023-01-11T21:09:26.726Z,13.07
2023-01-11T21:12:28.047Z,13.67
2023-01-11T21:15:29.374Z,13.02
2023-01-11T21:18:30.713Z,13.45
2023-01-11T21:21:32.029Z,13.02
2023-01-11T21:24:33.326Z,12.57
2023-01-11T21:27:34.621Z,12.37
2023-01-11T21:30:35.960Z,12.80
2023-01-11T21:33:38.057Z,12.93
2023-01-11T21:36:39.448Z,13.02
2023-01-11T21:39:40.759Z,13.32
2023-01-11T21:42:42.087Z,12.87
2023-01-11T21:45:43.404Z,13.75
2023-01-11T21:48:44.758Z,12.18
2023-01-11T21:51:46.247Z,12.30
2023-01-11T21:54:47.552Z,11.80
2023-01-11T21:57:48.904Z,11.07
2023-01-11T22:00:50.268Z,12.10
2023-01-11T22:03:51.675Z,11.30
2023-01-11T22:06:52.995Z,11.00
2023-01-11T22:10:04.518Z,11.32
2023-01-11T22:13:06.333Z,12.37
2023-01-11T22:16:07.654Z,11.73
2023-01-11T22:19:08.961Z,11.10
2023-01-11T22:22:10.257Z,11.18
2023-01-11T22:25:11.560Z,11.23
2023-01-11T22:28:12.872Z,10.43
2023-01-11T22:31:14.196Z,11.43
2023-01-11T22:34:15.552Z,11.02
2023-01-11T22:37:16.860Z,11.30
2023-01-11T22:40:18.210Z,10.45
2023-01-11T22:43:19.535Z,10.50
2023-01-11T22:46:20.858Z,11.18
2023-01-11T22:49:22.304Z,10.57
2023-01-11T22:52:23.624Z,10.50
2023-01-11T22:55:24.955Z,11.32
2023-01-11T22:58:26.239Z,10.77
2023-01-11T23:01:27.554Z,10.40
2023-01-11T23:04:28.876Z,9.95
2023-01-11T23:07:30.156Z,10.80
2023-01-11T23:10:31.462Z,10.13
2023-01-11T23:13:32.745Z,10.43
2023-01-11T23:16:34.144Z,10.20
2023-01-11T23:19:35.447Z,9.68
2023-01-11T23:22:36.754Z,9.57
2023-01-11T23:25:38.057Z,9.82
2023-01-11T23:28:39.377Z,9.80
2023-01-11T23:31:40.751Z,9.43
2023-01-11T23:34:42.191Z,10.02
2023-01-11T23:37:43.481Z,10.50
2023-01-11T23:40:44.795Z,9.57
2023-01-11T23:43:46.078Z,9.60
2023-01-11T23:46:47.378Z,9.38
2023-01-11T23:49:48.717Z,8.55
2023-01-11T23:52:50.017Z,9.55
2023-01-11T23:55:51.324Z,9.55
2023-01-11T23:58:52.615Z,9.03
